sensor_id;sensor_type;location;lat;lon;timestamp;pressure;altitude;pressure_sealevel;temperature;humidity
70053;BME280;57398;52.032;4.376;2023-06-14T00:03:14;101388.66;;;17.89;nan
70053;BME280;57398;52.032;4.376;2023-06-14T00:06:04;101384.69;;;17.86;nan
70053;BME280;57398;52.032;4.376;2023-06-14T00:08:53;101377.09;;;17.85;nan
70053;BME280;57398;52.032;4.376;2023-06-14T00:17:17;101364.66;;;17.80;nan
70053;BME280;57398;52.032;4.376;2023-06-14T00:20:07;101345.19;;;17.76;nan
70053;BME280;57398;52.032;4.376;2023-06-14T00:22:56;101329.41;;;17.71;nan
70053;BME280;57398;52.032;4.376;2023-06-14T00:25:45;101343.03;;;17.68;nan
70053;BME280;57398;52.032;4.376;2023-06-14T00:28:33;101327.25;;;17.63;nan
70053;BME280;57398;52.032;4.376;2023-06-14T00:37:01;101340.59;;;17.56;nan
70053;BME280;57398;52.032;4.376;2023-06-14T00:39:51;101352.16;;;17.55;nan
70053;BME280;57398;52.032;4.376;2023-06-14T00:42:39;101368.16;;;17.53;nan
70053;BME280;57398;52.032;4.376;2023-06-14T00:45:27;101361.56;;;17.51;nan
70053;BME280;57398;52.032;4.376;2023-06-14T00:48:18;101353.66;;;17.46;nan
70053;BME280;57398;52.032;4.376;2023-06-14T00:51:07;101344.13;;;17.34;nan
70053;BME280;57398;52.032;4.376;2023-06-14T00:53:57;101342.81;;;17.37;nan
70053;BME280;57398;52.032;4.376;2023-06-14T00:56:46;101342.03;;;17.36;nan
70053;BME280;57398;52.032;4.376;2023-06-14T01:02:23;101335.34;;;17.19;nan
70053;BME280;57398;52.032;4.376;2023-06-14T01:05:13;101321.09;;;17.09;nan
70053;BME280;57398;52.032;4.376;2023-06-14T01:08:13;101330.25;;;17.07;nan
70053;BME280;57398;52.032;4.376;2023-06-14T01:11:08;101346.47;;;17.04;nan
70053;BME280;57398;52.032;4.376;2023-06-14T01:14:00;101343.56;;;17.00;nan
70053;BME280;57398;52.032;4.376;2023-06-14T01:19:41;101383.31;;;16.87;nan
70053;BME280;57398;52.032;4.376;2023-06-14T01:22:29;101396.22;;;16.88;nan
70053;BME280;57398;52.032;4.376;2023-06-14T01:25:20;101411.63;;;16.85;nan
70053;BME280;57398;52.032;4.376;2023-06-14T01:28:10;101394.47;;;16.77;nan
70053;BME280;57398;52.032;4.376;2023-06-14T01:31:01;101405.41;;;16.69;nan
70053;BME280;57398;52.032;4.376;2023-06-14T01:33:52;101432.19;;;16.71;nan
70053;BME280;57398;52.032;4.376;2023-06-14T01:36:42;101418.22;;;16.65;nan
70053;BME280;57398;52.032;4.376;2023-06-14T01:39:32;101431.53;;;16.59;nan
70053;BME280;57398;52.032;4.376;2023-06-14T01:42:23;101443.75;;;16.53;nan
70053;BME280;57398;52.032;4.376;2023-06-14T01:45:11;101430.81;;;16.46;nan
70053;BME280;57398;52.032;4.376;2023-06-14T01:48:00;101425.75;;;16.40;nan
70053;BME280;57398;52.032;4.376;2023-06-14T01:56:25;101415.88;;;16.25;nan
70053;BME280;57398;52.032;4.376;2023-06-14T01:59:15;101437.13;;;16.28;nan
70053;BME280;57398;52.032;4.376;2023-06-14T02:04:52;101431.81;;;16.23;nan
70053;BME280;57398;52.032;4.376;2023-06-14T02:07:44;101433.09;;;16.21;nan
70053;BME280;57398;52.032;4.376;2023-06-14T02:10:32;101421.50;;;16.17;nan
70053;BME280;57398;52.032;4.376;2023-06-14T02:13:22;101406.13;;;16.03;nan
70053;BME280;57398;52.032;4.376;2023-06-14T02:16:12;101416.06;;;16.01;nan
70053;BME280;57398;52.032;4.376;2023-06-14T02:19:01;101413.34;;;15.96;nan
70053;BME280;57398;52.032;4.376;2023-06-14T02:24:37;101422.75;;;15.92;nan
70053;BME280;57398;52.032;4.376;2023-06-14T02:27:26;101395.81;;;15.80;nan
70053;BME280;57398;52.032;4.376;2023-06-14T02:30:14;101409.19;;;15.78;nan
70053;BME280;57398;52.032;4.376;2023-06-14T02:33:05;101406.47;;;15.73;nan
70053;BME280;57398;52.032;4.376;2023-06-14T02:35:53;101406.91;;;15.70;nan
70053;BME280;57398;52.032;4.376;2023-06-14T02:38:41;101392.63;;;15.61;nan
70053;BME280;57398;52.032;4.376;2023-06-14T02:41:30;101419.94;;;15.65;nan
70053;BME280;57398;52.032;4.376;2023-06-14T02:44:18;101400.72;;;15.59;nan
70053;BME280;57398;52.032;4.376;2023-06-14T02:47:07;101386.69;;;15.48;nan
70053;BME280;57398;52.032;4.376;2023-06-14T02:49:57;101387.63;;;15.42;nan
70053;BME280;57398;52.032;4.376;2023-06-14T02:52:45;101363.16;;;15.37;nan
70053;BME280;57398;52.032;4.376;2023-06-14T02:55:34;101351.28;;;15.29;nan
70053;BME280;57398;52.032;4.376;2023-06-14T02:58:27;101353.56;;;15.25;nan
70053;BME280;57398;52.032;4.376;2023-06-14T03:04:04;101375.53;;;15.24;nan
70053;BME280;57398;52.032;4.376;2023-06-14T03:06:53;101375.47;;;15.19;nan
70053;BME280;57398;52.032;4.376;2023-06-14T03:09:41;101346.25;;;15.11;nan
70053;BME280;57398;52.032;4.376;2023-06-14T03:12:30;101362.53;;;15.13;nan
70053;BME280;57398;52.032;4.376;2023-06-14T03:15:18;101385.84;;;15.14;nan
70053;BME280;57398;52.032;4.376;2023-06-14T03:18:07;101369.34;;;15.14;nan
70053;BME280;57398;52.032;4.376;2023-06-14T03:20:56;101377.66;;;15.11;nan
70053;BME280;57398;52.032;4.376;2023-06-14T03:23:48;101373.13;;;15.06;nan
70053;BME280;57398;52.032;4.376;2023-06-14T03:26:37;101377.59;;;15.05;nan
70053;BME280;57398;52.032;4.376;2023-06-14T03:29:25;101391.94;;;15.03;nan
70053;BME280;57398;52.032;4.376;2023-06-14T03:32:13;101405.31;;;15.06;nan
70053;BME280;57398;52.032;4.376;2023-06-14T03:35:02;101394.28;;;15.04;nan
70053;BME280;57398;52.032;4.376;2023-06-14T03:37:51;101384.88;;;15.03;nan
70053;BME280;57398;52.032;4.376;2023-06-14T03:40:40;101388.75;;;15.01;nan
70053;BME280;57398;52.032;4.376;2023-06-14T03:43:28;101384.78;;;14.98;nan
70053;BME280;57398;52.032;4.376;2023-06-14T03:46:17;101380.00;;;14.95;nan
70053;BME280;57398;52.032;4.376;2023-06-14T03:49:05;101393.31;;;14.94;nan
70053;BME280;57398;52.032;4.376;2023-06-14T03:51:54;101377.84;;;14.92;nan
70053;BME280;57398;52.032;4.376;2023-06-14T03:54:42;101387.75;;;14.90;nan
70053;BME280;57398;52.032;4.376;2023-06-14T03:57:35;101392.75;;;14.92;nan
70053;BME280;57398;52.032;4.376;2023-06-14T04:00:23;101413.69;;;14.92;nan
70053;BME280;57398;52.032;4.376;2023-06-14T04:03:11;101400.63;;;14.92;nan
70053;BME280;57398;52.032;4.376;2023-06-14T04:06:01;101409.25;;;14.92;nan
70053;BME280;57398;52.032;4.376;2023-06-14T04:08:49;101412.09;;;14.91;nan
70053;BME280;57398;52.032;4.376;2023-06-14T04:11:37;101440.72;;;14.97;nan
70053;BME280;57398;52.032;4.376;2023-06-14T04:14:27;101429.00;;;15.00;nan
70053;BME280;57398;52.032;4.376;2023-06-14T04:17:15;101436.41;;;15.03;nan
70053;BME280;57398;52.032;4.376;2023-06-14T04:20:05;101439.03;;;15.03;nan
70053;BME280;57398;52.032;4.376;2023-06-14T04:25:45;101452.41;;;15.06;nan
70053;BME280;57398;52.032;4.376;2023-06-14T04:28:34;101460.25;;;15.06;nan
70053;BME280;57398;52.032;4.376;2023-06-14T04:31:25;101470.13;;;15.16;nan
70053;BME280;57398;52.032;4.376;2023-06-14T04:34:16;101456.94;;;15.11;nan
70053;BME280;57398;52.032;4.376;2023-06-14T04:37:04;101475.34;;;15.16;nan
70053;BME280;57398;52.032;4.376;2023-06-14T04:42:44;101498.78;;;15.23;nan
70053;BME280;57398;52.032;4.376;2023-06-14T04:45:33;101496.03;;;15.29;nan
70053;BME280;57398;52.032;4.376;2023-06-14T04:48:22;101507.41;;;15.35;nan
70053;BME280;57398;52.032;4.376;2023-06-14T04:51:11;101494.88;;;15.37;nan
70053;BME280;57398;52.032;4.376;2023-06-14T04:54:01;101507.84;;;15.44;nan
70053;BME280;57398;52.032;4.376;2023-06-14T04:56:51;101512.09;;;15.50;nan
70053;BME280;57398;52.032;4.376;2023-06-14T05:02:28;101525.16;;;15.62;nan
70053;BME280;57398;52.032;4.376;2023-06-14T05:05:19;101544.13;;;15.69;nan
70053;BME280;57398;52.032;4.376;2023-06-14T05:08:08;101540.94;;;15.79;nan
70053;BME280;57398;52.032;4.376;2023-06-14T05:10:56;101549.44;;;15.86;nan
70053;BME280;57398;52.032;4.376;2023-06-14T05:13:44;101543.81;;;15.94;nan
70053;BME280;57398;52.032;4.376;2023-06-14T05:16:33;101566.22;;;16.02;nan
70053;BME280;57398;52.032;4.376;2023-06-14T05:19:22;101558.84;;;16.16;nan
70053;BME280;57398;52.032;4.376;2023-06-14T05:22:11;101567.84;;;16.20;nan
70053;BME280;57398;52.032;4.376;2023-06-14T05:24:59;101606.19;;;16.26;nan
70053;BME280;57398;52.032;4.376;2023-06-14T05:27:48;101606.38;;;16.36;nan
70053;BME280;57398;52.032;4.376;2023-06-14T05:30:37;101607.88;;;16.49;nan
70053;BME280;57398;52.032;4.376;2023-06-14T05:33:26;101608.19;;;16.52;nan
70053;BME280;57398;52.032;4.376;2023-06-14T05:36:15;101617.75;;;16.59;nan
70053;BME280;57398;52.032;4.376;2023-06-14T05:39:05;101644.13;;;16.69;nan
70053;BME280;57398;52.032;4.376;2023-06-14T05:41:55;101649.63;;;16.84;nan
70053;BME280;57398;52.032;4.376;2023-06-14T05:44:44;101642.72;;;16.95;nan
70053;BME280;57398;52.032;4.376;2023-06-14T05:47:32;101659.81;;;16.98;nan
70053;BME280;57398;52.032;4.376;2023-06-14T05:50:21;101669.41;;;17.09;nan
70053;BME280;57398;52.032;4.376;2023-06-14T05:53:09;101669.94;;;17.11;nan
70053;BME280;57398;52.032;4.376;2023-06-14T05:55:59;101688.31;;;17.28;nan
70053;BME280;57398;52.032;4.376;2023-06-14T05:58:48;101710.16;;;17.33;nan
70053;BME280;57398;52.032;4.376;2023-06-14T06:01:37;101699.25;;;17.42;nan
70053;BME280;57398;52.032;4.376;2023-06-14T06:04:27;101686.13;;;17.42;nan
70053;BME280;57398;52.032;4.376;2023-06-14T06:10:03;101714.53;;;17.45;nan
70053;BME280;57398;52.032;4.376;2023-06-14T06:12:54;101717.03;;;17.56;nan
70053;BME280;57398;52.032;4.376;2023-06-14T06:15:42;101725.91;;;17.72;nan
70053;BME280;57398;52.032;4.376;2023-06-14T06:18:30;101713.25;;;17.69;nan
70053;BME280;57398;52.032;4.376;2023-06-14T06:21:19;101725.91;;;17.72;nan
70053;BME280;57398;52.032;4.376;2023-06-14T06:24:07;101729.31;;;17.73;nan
70053;BME280;57398;52.032;4.376;2023-06-14T06:26:55;101732.72;;;17.90;nan
70053;BME280;57398;52.032;4.376;2023-06-14T06:29:45;101754.97;;;17.83;nan
70053;BME280;57398;52.032;4.376;2023-06-14T06:32:35;101762.19;;;17.92;nan
70053;BME280;57398;52.032;4.376;2023-06-14T06:35:23;101751.03;;;18.07;nan
70053;BME280;57398;52.032;4.376;2023-06-14T06:38:11;101757.16;;;18.13;nan
70053;BME280;57398;52.032;4.376;2023-06-14T06:43:48;101756.84;;;18.31;nan
70053;BME280;57398;52.032;4.376;2023-06-14T06:46:38;101772.47;;;18.43;nan
70053;BME280;57398;52.032;4.376;2023-06-14T06:49:28;101786.69;;;18.42;nan
70053;BME280;57398;52.032;4.376;2023-06-14T06:52:16;101798.50;;;18.39;nan
70053;BME280;57398;52.032;4.376;2023-06-14T06:55:05;101795.22;;;18.54;nan
70053;BME280;57398;52.032;4.376;2023-06-14T06:57:53;101789.44;;;18.57;nan
70053;BME280;57398;52.032;4.376;2023-06-14T07:00:42;101792.97;;;18.68;nan
70053;BME280;57398;52.032;4.376;2023-06-14T07:03:32;101809.44;;;18.53;nan
70053;BME280;57398;52.032;4.376;2023-06-14T07:06:20;101803.97;;;18.60;nan
70053;BME280;57398;52.032;4.376;2023-06-14T07:09:08;101808.56;;;18.75;nan
70053;BME280;57398;52.032;4.376;2023-06-14T07:14:47;101816.06;;;18.83;nan
70053;BME280;57398;52.032;4.376;2023-06-14T07:17:35;101816.91;;;18.94;nan
70053;BME280;57398;52.032;4.376;2023-06-14T07:20:26;101818.22;;;19.23;nan
70053;BME280;57398;52.032;4.376;2023-06-14T07:23:15;101814.34;;;19.31;nan
70053;BME280;57398;52.032;4.376;2023-06-14T07:28:52;101835.47;;;19.41;nan
70053;BME280;57398;52.032;4.376;2023-06-14T07:31:40;101836.03;;;19.49;nan
70053;BME280;57398;52.032;4.376;2023-06-14T07:34:29;101831.00;;;19.42;nan
70053;BME280;57398;52.032;4.376;2023-06-14T07:40:07;101838.72;;;19.54;nan
70053;BME280;57398;52.032;4.376;2023-06-14T07:42:57;101833.75;;;19.62;nan
70053;BME280;57398;52.032;4.376;2023-06-14T07:45:45;101836.22;;;19.69;nan
70053;BME280;57398;52.032;4.376;2023-06-14T07:48:48;101844.41;;;19.73;nan
70053;BME280;57398;52.032;4.376;2023-06-14T07:51:37;101845.50;;;19.82;nan
70053;BME280;57398;52.032;4.376;2023-06-14T07:54:29;101848.72;;;19.94;nan
70053;BME280;57398;52.032;4.376;2023-06-14T07:57:19;101849.72;;;19.83;nan
70053;BME280;57398;52.032;4.376;2023-06-14T08:00:08;101836.88;;;20.02;nan
70053;BME280;57398;52.032;4.376;2023-06-14T08:03:01;101835.09;;;20.07;nan
70053;BME280;57398;52.032;4.376;2023-06-14T08:05:51;101850.69;;;20.14;nan
70053;BME280;57398;52.032;4.376;2023-06-14T08:08:39;101851.16;;;20.11;nan
70053;BME280;57398;52.032;4.376;2023-06-14T08:11:28;101849.16;;;20.34;nan
70053;BME280;57398;52.032;4.376;2023-06-14T08:17:05;101850.84;;;20.60;nan
70053;BME280;57398;52.032;4.376;2023-06-14T08:22:44;101851.09;;;20.59;nan
70053;BME280;57398;52.032;4.376;2023-06-14T08:25:35;101849.59;;;20.99;nan
70053;BME280;57398;52.032;4.376;2023-06-14T08:28:25;101864.38;;;21.30;nan
70053;BME280;57398;52.032;4.376;2023-06-14T08:31:13;101854.09;;;21.44;nan
70053;BME280;57398;52.032;4.376;2023-06-14T08:34:01;101855.13;;;21.23;nan
70053;BME280;57398;52.032;4.376;2023-06-14T08:36:52;101853.25;;;21.64;nan
70053;BME280;57398;52.032;4.376;2023-06-14T08:39:40;101866.22;;;21.61;nan
70053;BME280;57398;52.032;4.376;2023-06-14T08:42:29;101863.03;;;21.74;nan
70053;BME280;57398;52.032;4.376;2023-06-14T08:45:20;101875.66;;;21.87;nan
70053;BME280;57398;52.032;4.376;2023-06-14T08:48:12;101860.03;;;22.06;nan
70053;BME280;57398;52.032;4.376;2023-06-14T08:53:54;101868.28;;;21.84;nan
70053;BME280;57398;52.032;4.376;2023-06-14T08:56:44;101861.56;;;22.17;nan
70053;BME280;57398;52.032;4.376;2023-06-14T08:59:35;101868.16;;;22.20;nan
70053;BME280;57398;52.032;4.376;2023-06-14T09:02:27;101864.16;;;23.17;nan
70053;BME280;57398;52.032;4.376;2023-06-14T09:05:16;101873.31;;;24.31;nan
70053;BME280;57398;52.032;4.376;2023-06-14T09:08:05;101873.38;;;24.26;nan
70053;BME280;57398;52.032;4.376;2023-06-14T09:13:44;101871.50;;;25.02;nan
70053;BME280;57398;52.032;4.376;2023-06-14T09:16:32;101875.34;;;25.10;nan
70053;BME280;57398;52.032;4.376;2023-06-14T09:19:23;101866.53;;;25.75;nan
70053;BME280;57398;52.032;4.376;2023-06-14T09:25:00;101880.31;;;26.19;nan
70053;BME280;57398;52.032;4.376;2023-06-14T09:30:37;101884.09;;;25.90;nan
70053;BME280;57398;52.032;4.376;2023-06-14T09:33:25;101875.16;;;26.22;nan
70053;BME280;57398;52.032;4.376;2023-06-14T09:36:17;101876.38;;;26.52;nan
70053;BME280;57398;52.032;4.376;2023-06-14T09:39:05;101884.47;;;25.97;nan
70053;BME280;57398;52.032;4.376;2023-06-14T09:41:55;101896.81;;;25.93;nan
70053;BME280;57398;52.032;4.376;2023-06-14T09:44:43;101875.94;;;26.37;nan
70053;BME280;57398;52.032;4.376;2023-06-14T09:47:34;101883.50;;;26.43;nan
70053;BME280;57398;52.032;4.376;2023-06-14T09:53:11;101887.88;;;26.76;nan
70053;BME280;57398;52.032;4.376;2023-06-14T09:56:00;101884.00;;;26.82;nan
70053;BME280;57398;52.032;4.376;2023-06-14T09:58:50;101891.34;;;26.26;nan
70053;BME280;57398;52.032;4.376;2023-06-14T10:04:46;101885.25;;;26.48;nan
70053;BME280;57398;52.032;4.376;2023-06-14T10:10:29;101889.41;;;25.90;nan
70053;BME280;57398;52.032;4.376;2023-06-14T10:13:17;101871.84;;;26.53;nan
70053;BME280;57398;52.032;4.376;2023-06-14T10:16:10;101867.50;;;26.43;nan
70053;BME280;57398;52.032;4.376;2023-06-14T10:21:58;101871.78;;;27.12;nan
70053;BME280;57398;52.032;4.376;2023-06-14T10:24:47;101875.41;;;27.39;nan
70053;BME280;57398;52.032;4.376;2023-06-14T10:30:27;101865.78;;;27.29;nan
70053;BME280;57398;52.032;4.376;2023-06-14T10:33:16;101865.38;;;27.13;nan
70053;BME280;57398;52.032;4.376;2023-06-14T10:36:24;101861.19;;;26.98;nan
70053;BME280;57398;52.032;4.376;2023-06-14T10:39:16;101864.53;;;27.04;nan
70053;BME280;57398;52.032;4.376;2023-06-14T10:42:05;101875.56;;;26.88;nan
70053;BME280;57398;52.032;4.376;2023-06-14T10:44:56;101885.47;;;26.51;nan
70053;BME280;57398;52.032;4.376;2023-06-14T10:47:48;101884.47;;;25.97;nan
70053;BME280;57398;52.032;4.376;2023-06-14T10:50:42;101894.94;;;25.94;nan
70053;BME280;57398;52.032;4.376;2023-06-14T10:53:39;101885.41;;;25.46;nan
70053;BME280;57398;52.032;4.376;2023-06-14T10:59:17;101869.25;;;27.07;nan
70053;BME280;57398;52.032;4.376;2023-06-14T11:02:25;101875.53;;;27.33;nan
70053;BME280;57398;52.032;4.376;2023-06-14T11:05:24;101865.09;;;26.92;nan
70053;BME280;57398;52.032;4.376;2023-06-14T11:08:32;101870.25;;;26.16;nan
70053;BME280;57398;52.032;4.376;2023-06-14T11:11:31;101867.22;;;26.81;nan
70053;BME280;57398;52.032;4.376;2023-06-14T11:14:22;101870.31;;;26.74;nan
70053;BME280;57398;52.032;4.376;2023-06-14T11:17:12;101862.94;;;27.03;nan
70053;BME280;57398;52.032;4.376;2023-06-14T11:20:10;101879.09;;;26.25;nan
70053;BME280;57398;52.032;4.376;2023-06-14T11:28:40;101849.75;;;26.75;nan
70053;BME280;57398;52.032;4.376;2023-06-14T11:31:30;101860.28;;;27.03;nan
70053;BME280;57398;52.032;4.376;2023-06-14T11:34:21;101853.88;;;27.26;nan
70053;BME280;57398;52.032;4.376;2023-06-14T11:37:09;101858.03;;;26.96;nan
70053;BME280;57398;52.032;4.376;2023-06-14T11:39:57;101854.88;;;27.16;nan
70053;BME280;57398;52.032;4.376;2023-06-14T11:42:45;101845.91;;;27.12;nan
70053;BME280;57398;52.032;4.376;2023-06-14T11:45:34;101843.69;;;27.37;nan
70053;BME280;57398;52.032;4.376;2023-06-14T11:48:22;101844.06;;;27.44;nan
70053;BME280;57398;52.032;4.376;2023-06-14T11:51:11;101837.38;;;27.02;nan
70053;BME280;57398;52.032;4.376;2023-06-14T11:54:00;101846.22;;;27.11;nan
70053;BME280;57398;52.032;4.376;2023-06-14T11:56:50;101842.09;;;27.27;nan
70053;BME280;57398;52.032;4.376;2023-06-14T11:59:38;101846.72;;;27.53;nan
70053;BME280;57398;52.032;4.376;2023-06-14T12:05:16;101859.25;;;27.12;nan
70053;BME280;57398;52.032;4.376;2023-06-14T12:08:06;101852.25;;;26.94;nan
70053;BME280;57398;52.032;4.376;2023-06-14T12:10:55;101852.13;;;26.40;nan
70053;BME280;57398;52.032;4.376;2023-06-14T12:13:43;101844.81;;;27.13;nan
70053;BME280;57398;52.032;4.376;2023-06-14T12:16:33;101856.31;;;26.69;nan
70053;BME280;57398;52.032;4.376;2023-06-14T12:19:26;101859.53;;;26.43;nan
70053;BME280;57398;52.032;4.376;2023-06-14T12:22:14;101861.19;;;26.17;nan
70053;BME280;57398;52.032;4.376;2023-06-14T12:25:04;101871.84;;;26.03;nan
70053;BME280;57398;52.032;4.376;2023-06-14T12:27:52;101863.97;;;26.11;nan
70053;BME280;57398;52.032;4.376;2023-06-14T12:30:41;101858.31;;;26.49;nan
70053;BME280;57398;52.032;4.376;2023-06-14T12:33:29;101874.44;;;26.44;nan
70053;BME280;57398;52.032;4.376;2023-06-14T12:36:19;101859.84;;;26.78;nan
70053;BME280;57398;52.032;4.376;2023-06-14T12:39:07;101857.38;;;26.31;nan
70053;BME280;57398;52.032;4.376;2023-06-14T12:41:57;101857.88;;;26.70;nan
70053;BME280;57398;52.032;4.376;2023-06-14T12:44:46;101853.75;;;26.86;nan
70053;BME280;57398;52.032;4.376;2023-06-14T12:47:34;101863.81;;;26.67;nan
70053;BME280;57398;52.032;4.376;2023-06-14T12:50:22;101851.34;;;26.76;nan
70053;BME280;57398;52.032;4.376;2023-06-14T12:56:00;101855.44;;;26.82;nan
70053;BME280;57398;52.032;4.376;2023-06-14T12:58:50;101853.63;;;26.91;nan
70053;BME280;57398;52.032;4.376;2023-06-14T13:07:14;101865.88;;;26.70;nan
70053;BME280;57398;52.032;4.376;2023-06-14T13:10:03;101864.41;;;27.09;nan
70053;BME280;57398;52.032;4.376;2023-06-14T13:12:51;101863.34;;;26.65;nan
70053;BME280;57398;52.032;4.376;2023-06-14T13:15:41;101867.69;;;26.83;nan
70053;BME280;57398;52.032;4.376;2023-06-14T13:18:30;101871.56;;;26.77;nan
70053;BME280;57398;52.032;4.376;2023-06-14T13:21:19;101879.94;;;26.84;nan
70053;BME280;57398;52.032;4.376;2023-06-14T13:24:07;101876.97;;;26.63;nan
70053;BME280;57398;52.032;4.376;2023-06-14T13:26:55;101874.06;;;26.73;nan
70053;BME280;57398;52.032;4.376;2023-06-14T13:29:44;101874.94;;;26.91;nan
70053;BME280;57398;52.032;4.376;2023-06-14T13:32:33;101875.56;;;26.66;nan
70053;BME280;57398;52.032;4.376;2023-06-14T13:35:22;101874.16;;;26.91;nan
70053;BME280;57398;52.032;4.376;2023-06-14T13:38:10;101866.28;;;27.08;nan
70053;BME280;57398;52.032;4.376;2023-06-14T13:40:58;101877.25;;;26.84;nan
70053;BME280;57398;52.032;4.376;2023-06-14T13:43:46;101870.41;;;26.33;nan
70053;BME280;57398;52.032;4.376;2023-06-14T13:46:35;101855.31;;;27.10;nan
70053;BME280;57398;52.032;4.376;2023-06-14T13:49:24;101854.50;;;27.09;nan
70053;BME280;57398;52.032;4.376;2023-06-14T13:52:13;101853.09;;;27.03;nan
70053;BME280;57398;52.032;4.376;2023-06-14T13:55:01;101854.78;;;26.99;nan
70053;BME280;57398;52.032;4.376;2023-06-14T13:57:51;101867.50;;;26.57;nan
70053;BME280;57398;52.032;4.376;2023-06-14T14:00:39;101855.56;;;27.00;nan
70053;BME280;57398;52.032;4.376;2023-06-14T14:03:27;101848.53;;;27.75;nan
70053;BME280;57398;52.032;4.376;2023-06-14T14:06:17;101858.38;;;26.72;nan
70053;BME280;57398;52.032;4.376;2023-06-14T14:11:53;101861.03;;;26.72;nan
70053;BME280;57398;52.032;4.376;2023-06-14T14:14:42;101843.56;;;27.11;nan
70053;BME280;57398;52.032;4.376;2023-06-14T14:17:30;101850.94;;;27.14;nan
70053;BME280;57398;52.032;4.376;2023-06-14T14:20:19;101859.03;;;26.55;nan
70053;BME280;57398;52.032;4.376;2023-06-14T14:23:09;101859.16;;;26.36;nan
70053;BME280;57398;52.032;4.376;2023-06-14T14:25:57;101856.44;;;26.50;nan
70053;BME280;57398;52.032;4.376;2023-06-14T14:28:47;101851.84;;;26.42;nan
70053;BME280;57398;52.032;4.376;2023-06-14T14:31:35;101854.38;;;26.61;nan
70053;BME280;57398;52.032;4.376;2023-06-14T14:34:24;101841.66;;;27.11;nan
70053;BME280;57398;52.032;4.376;2023-06-14T14:37:12;101842.09;;;27.05;nan
70053;BME280;57398;52.032;4.376;2023-06-14T14:40:04;101855.63;;;26.63;nan
70053;BME280;57398;52.032;4.376;2023-06-14T14:42:52;101841.47;;;27.30;nan
70053;BME280;57398;52.032;4.376;2023-06-14T14:48:31;101844.59;;;27.32;nan
70053;BME280;57398;52.032;4.376;2023-06-14T14:51:20;101850.59;;;26.62;nan
70053;BME280;57398;52.032;4.376;2023-06-14T14:54:08;101841.44;;;26.54;nan
70053;BME280;57398;52.032;4.376;2023-06-14T14:56:59;101846.94;;;26.71;nan
70053;BME280;57398;52.032;4.376;2023-06-14T14:59:47;101850.59;;;26.62;nan
70053;BME280;57398;52.032;4.376;2023-06-14T15:02:35;101835.38;;;27.39;nan
70053;BME280;57398;52.032;4.376;2023-06-14T15:05:24;101841.25;;;27.49;nan
70053;BME280;57398;52.032;4.376;2023-06-14T15:08:12;101824.94;;;27.60;nan
70053;BME280;57398;52.032;4.376;2023-06-14T15:11:01;101838.56;;;27.98;nan
70053;BME280;57398;52.032;4.376;2023-06-14T15:13:51;101838.28;;;27.60;nan
70053;BME280;57398;52.032;4.376;2023-06-14T15:16:41;101848.84;;;27.02;nan
70053;BME280;57398;52.032;4.376;2023-06-14T15:19:29;101829.97;;;27.21;nan
70053;BME280;57398;52.032;4.376;2023-06-14T15:22:17;101839.38;;;27.58;nan
70053;BME280;57398;52.032;4.376;2023-06-14T15:25:06;101841.19;;;26.87;nan
70053;BME280;57398;52.032;4.376;2023-06-14T15:27:56;101832.97;;;26.74;nan
70053;BME280;57398;52.032;4.376;2023-06-14T15:30:46;101844.56;;;26.92;nan
70053;BME280;57398;52.032;4.376;2023-06-14T15:33:36;101828.41;;;27.69;nan
70053;BME280;57398;52.032;4.376;2023-06-14T15:36:24;101828.34;;;27.91;nan
70053;BME280;57398;52.032;4.376;2023-06-14T15:42:01;101837.47;;;27.19;nan
70053;BME280;57398;52.032;4.376;2023-06-14T15:44:49;101847.03;;;27.43;nan
70053;BME280;57398;52.032;4.376;2023-06-14T15:50:28;101836.56;;;27.64;nan
70053;BME280;57398;52.032;4.376;2023-06-14T15:53:17;101838.69;;;27.13;nan
70053;BME280;57398;52.032;4.376;2023-06-14T15:56:05;101844.53;;;27.55;nan
70053;BME280;57398;52.032;4.376;2023-06-14T15:58:53;101850.72;;;27.24;nan
70053;BME280;57398;52.032;4.376;2023-06-14T16:01:41;101835.44;;;26.93;nan
70053;BME280;57398;52.032;4.376;2023-06-14T16:04:31;101844.06;;;26.68;nan
70053;BME280;57398;52.032;4.376;2023-06-14T16:07:19;101836.13;;;26.18;nan
70053;BME280;57398;52.032;4.376;2023-06-14T16:10:08;101837.97;;;26.67;nan
70053;BME280;57398;52.032;4.376;2023-06-14T16:12:56;101826.03;;;26.87;nan
70053;BME280;57398;52.032;4.376;2023-06-14T16:18:32;101831.59;;;26.77;nan
70053;BME280;57398;52.032;4.376;2023-06-14T16:21:22;101823.75;;;27.03;nan
70053;BME280;57398;52.032;4.376;2023-06-14T16:24:10;101832.38;;;26.78;nan
70053;BME280;57398;52.032;4.376;2023-06-14T16:26:58;101824.06;;;27.02;nan
70053;BME280;57398;52.032;4.376;2023-06-14T16:32:35;101829.34;;;26.70;nan
70053;BME280;57398;52.032;4.376;2023-06-14T16:35:23;101817.59;;;26.71;nan
70053;BME280;57398;52.032;4.376;2023-06-14T16:38:13;101824.34;;;26.69;nan
70053;BME280;57398;52.032;4.376;2023-06-14T16:41:02;101814.41;;;26.61;nan
70053;BME280;57398;52.032;4.376;2023-06-14T16:46:38;101839.28;;;26.20;nan
70053;BME280;57398;52.032;4.376;2023-06-14T16:49:26;101823.06;;;26.52;nan
70053;BME280;57398;52.032;4.376;2023-06-14T16:52:15;101812.19;;;26.40;nan
70053;BME280;57398;52.032;4.376;2023-06-14T16:55:05;101822.38;;;26.61;nan
70053;BME280;57398;52.032;4.376;2023-06-14T16:57:54;101838.03;;;26.40;nan
70053;BME280;57398;52.032;4.376;2023-06-14T17:03:30;101845.22;;;26.03;nan
70053;BME280;57398;52.032;4.376;2023-06-14T17:06:19;101845.94;;;26.31;nan
70053;BME280;57398;52.032;4.376;2023-06-14T17:09:09;101850.09;;;25.87;nan
70053;BME280;57398;52.032;4.376;2023-06-14T17:11:59;101847.00;;;26.07;nan
70053;BME280;57398;52.032;4.376;2023-06-14T17:14:48;101854.22;;;26.07;nan
70053;BME280;57398;52.032;4.376;2023-06-14T17:17:38;101856.06;;;25.79;nan